Time;durP1;ratioP1;P1;durP2;ratioP2;P2;SDS_P1;SDS_P2;PMS_P1;PMS_P2;Temp;Humidity;BMP_temperature;BMP_pressure;BME280_temperature;BME280_humidity;BME280_pressure;Samples;Min_cycle;Max_cycle;Signal;HPM_P1;HPM_P2
2023/03/19 00:00:08;;;;;;;12.30;8.43;;;11.70;20.40;;;;;;5084471;28;20456;-68
2023/03/19 00:02:36;;;;;;;13.00;7.73;;;11.80;20.00;;;;;;5081654;28;20476;-68
2023/03/19 00:05:03;;;;;;;15.77;7.07;;;11.80;19.90;;;;;;5082872;28;20451;-68
2023/03/19 00:07:30;;;;;;;13.07;7.17;;;11.80;19.70;;;;;;5079323;28;20480;-68
2023/03/19 00:09:57;;;;;;;14.20;7.27;;;11.80;20.00;;;;;;5087103;28;20460;-68
2023/03/19 00:12:23;;;;;;;14.73;8.40;;;11.80;20.50;;;;;;5079692;28;20479;-69
2023/03/19 00:14:51;;;;;;;11.23;6.50;;;11.70;20.40;;;;;;5073971;28;20456;-68
2023/03/19 00:17:18;;;;;;;13.57;7.50;;;11.70;20.20;;;;;;5085206;28;20475;-68
2023/03/19 00:19:45;;;;;;;11.63;7.40;;;11.70;20.20;;;;;;5082907;28;20487;-68
2023/03/19 00:22:12;;;;;;;9.93;6.37;;;11.70;20.00;;;;;;5085427;28;20480;-68
2023/03/19 00:24:39;;;;;;;9.23;6.67;;;11.70;19.80;;;;;;5085159;28;20456;-68
2023/03/19 00:27:06;;;;;;;13.80;8.00;;;11.70;19.80;;;;;;5082692;28;20556;-67
2023/03/19 00:29:33;;;;;;;14.47;7.90;;;11.60;19.90;;;;;;5081705;28;20479;-67
2023/03/19 00:32:02;;;;;;;12.07;6.90;;;11.70;19.60;;;;;;5076963;28;20479;-67
2023/03/19 00:34:28;;;;;;;11.20;7.03;;;11.70;19.40;;;;;;5079670;28;20584;-67
2023/03/19 00:36:56;;;;;;;15.47;8.30;;;11.70;19.70;;;;;;5085962;28;20452;-67
2023/03/19 00:39:23;;;;;;;10.47;7.47;;;11.70;19.70;;;;;;5078492;28;20513;-67
2023/03/19 00:41:50;;;;;;;15.10;8.00;;;11.70;19.60;;;;;;5081097;28;20484;-67
2023/03/19 00:44:17;;;;;;;14.20;8.67;;;11.70;19.40;;;;;;5080201;28;20459;-67
2023/03/19 00:46:45;;;;;;;12.70;8.10;;;11.70;19.50;;;;;;5077691;28;20495;-67
2023/03/19 00:49:13;;;;;;;13.37;8.10;;;11.70;19.20;;;;;;5085339;28;20476;-67
2023/03/19 00:51:42;;;;;;;14.40;8.50;;;11.70;20.10;;;;;;5081545;28;20873;-67
2023/03/19 00:54:10;;;;;;;15.00;8.17;;;11.70;20.30;;;;;;5083423;28;20471;-68
2023/03/19 00:56:37;;;;;;;11.70;7.50;;;11.60;19.70;;;;;;5080757;28;20456;-67
2023/03/19 00:59:04;;;;;;;10.90;7.80;;;11.70;19.60;;;;;;5077612;28;20457;-67
2023/03/19 01:01:30;;;;;;;14.10;7.80;;;11.70;19.60;;;;;;5082197;28;20479;-67
2023/03/19 01:03:58;;;;;;;14.07;7.77;;;11.70;19.60;;;;;;5078748;28;20455;-67
2023/03/19 01:06:26;;;;;;;12.20;7.30;;;11.60;19.60;;;;;;5081256;28;20470;-67
2023/03/19 01:08:53;;;;;;;15.33;8.03;;;11.60;19.60;;;;;;5084808;28;20476;-67
2023/03/19 01:11:19;;;;;;;11.67;7.37;;;11.70;19.60;;;;;;5079526;28;20487;-67
2023/03/19 01:13:46;;;;;;;10.90;7.37;;;11.70;19.90;;;;;;5084364;28;20462;-67
2023/03/19 01:16:13;;;;;;;10.70;6.60;;;11.70;20.00;;;;;;5078223;28;20971;-68
2023/03/19 01:18:40;;;;;;;13.70;8.20;;;11.70;20.00;;;;;;5086530;28;20456;-67
2023/03/19 01:21:07;;;;;;;17.60;8.93;;;11.70;19.90;;;;;;5079659;28;20481;-67
2023/03/19 01:23:35;;;;;;;14.63;8.10;;;11.70;19.70;;;;;;5082465;28;21008;-66
2023/03/19 01:26:02;;;;;;;13.27;8.03;;;11.80;19.60;;;;;;5078160;28;20475;-66
2023/03/19 01:28:29;;;;;;;12.47;8.03;;;11.80;19.60;;;;;;5071418;28;20491;-67
2023/03/19 01:30:59;;;;;;;14.40;7.30;;;11.80;19.50;;;;;;5080105;28;20480;-67
2023/03/19 01:33:26;;;;;;;10.87;7.40;;;11.80;19.20;;;;;;5075758;28;20456;-67
2023/03/19 01:35:53;;;;;;;12.73;7.00;;;11.80;19.30;;;;;;5079428;28;20464;-66
2023/03/19 01:38:19;;;;;;;10.70;6.63;;;11.80;19.60;;;;;;5073273;28;20448;-67
2023/03/19 01:40:48;;;;;;;10.50;6.40;;;11.80;20.00;;;;;;5079407;28;21023;-67
2023/03/19 01:43:17;;;;;;;13.50;5.97;;;11.70;20.00;;;;;;5075970;28;20467;-67
2023/03/19 01:45:45;;;;;;;13.83;7.97;;;11.70;20.60;;;;;;5073058;28;20487;-67
2023/03/19 01:48:28;;;;;;;14.97;11.73;;;11.70;21.10;;;;;;5076047;28;23017;-67
2023/03/19 01:50:56;;;;;;;22.33;11.27;;;11.70;21.10;;;;;;5077451;28;20511;-66
2023/03/19 01:53:25;;;;;;;15.90;11.70;;;11.70;21.10;;;;;;5074383;28;21079;-66
2023/03/19 01:55:59;;;;;;;15.57;10.90;;;11.70;21.20;;;;;;5077375;28;20456;-66
2023/03/19 01:58:27;;;;;;;14.30;10.63;;;11.60;21.60;;;;;;5080246;28;20452;-66
2023/03/19 02:00:54;;;;;;;14.30;9.90;;;11.60;21.80;;;;;;5080922;28;20499;-66
2023/03/19 02:03:21;;;;;;;13.73;10.27;;;11.60;21.70;;;;;;5073895;28;20460;-66
2023/03/19 02:05:50;;;;;;;14.90;10.10;;;11.50;21.80;;;;;;5080565;28;20611;-67
2023/03/19 02:08:18;;;;;;;19.50;12.37;;;11.50;21.90;;;;;;5080277;28;20504;-67
2023/03/19 02:10:47;;;;;;;14.23;9.77;;;11.50;22.20;;;;;;5087908;28;20491;-67
2023/03/19 02:13:16;;;;;;;16.20;9.90;;;11.50;21.90;;;;;;5085690;28;20467;-66
2023/03/19 02:15:42;;;;;;;15.17;9.97;;;11.50;21.90;;;;;;5082738;28;20460;-65
2023/03/19 02:18:10;;;;;;;16.53;10.50;;;11.50;22.00;;;;;;5087449;28;20461;-67
2023/03/19 02:20:45;;;;;;;15.50;7.97;;;11.50;21.80;;;;;;5086446;28;20484;-67
2023/03/19 02:23:20;;;;;;;15.10;9.53;;;11.50;22.30;;;;;;5084167;28;20462;-67
2023/03/19 02:26:04;;;;;;;14.13;9.10;;;11.40;22.50;;;;;;5078197;28;20956;-66
2023/03/19 02:28:33;;;;;;;13.70;10.30;;;11.40;23.30;;;;;;5086240;28;20826;-66
2023/03/19 02:31:00;;;;;;;12.10;8.47;;;11.40;23.40;;;;;;5080357;28;20861;-67
2023/03/19 02:33:27;;;;;;;12.90;9.13;;;11.30;23.50;;;;;;5084328;28;20460;-67
2023/03/19 02:35:56;;;;;;;16.90;9.73;;;11.30;23.80;;;;;;5082941;28;20839;-66
2023/03/19 02:38:25;;;;;;;15.27;10.43;;;11.30;23.80;;;;;;5085894;28;20456;-67
2023/03/19 02:40:55;;;;;;;16.37;10.00;;;11.20;24.00;;;;;;5085490;28;20495;-67
2023/03/19 02:43:23;;;;;;;18.53;11.63;;;11.20;24.30;;;;;;5083808;28;20467;-66
2023/03/19 02:45:50;;;;;;;17.30;9.23;;;11.20;24.50;;;;;;5077180;28;20467;-67
2023/03/19 02:48:17;;;;;;;15.17;9.93;;;11.20;24.60;;;;;;5082680;28;20870;-66
2023/03/19 02:50:44;;;;;;;13.77;7.83;;;11.20;24.40;;;;;;5082323;28;20958;-66
2023/03/19 02:53:11;;;;;;;13.83;8.87;;;11.20;24.30;;;;;;5085385;28;20500;-66
2023/03/19 02:55:38;;;;;;;16.33;8.70;;;11.20;24.30;;;;;;5080527;28;20464;-67
2023/03/19 02:58:04;;;;;;;12.10;8.10;;;11.30;24.00;;;;;;5081641;28;20468;-67
2023/03/19 03:00:32;;;;;;;10.80;7.30;;;11.30;24.20;;;;;;5079084;28;21559;-67
2023/03/19 03:03:00;;;;;;;12.97;7.80;;;11.20;24.00;;;;;;5082634;28;20485;-67
2023/03/19 03:05:26;;;;;;;12.10;8.27;;;11.30;24.00;;;;;;5082394;28;20531;-67
2023/03/19 03:07:53;;;;;;;17.60;7.70;;;11.30;24.00;;;;;;5085483;28;20468;-67
2023/03/19 03:10:20;;;;;;;11.57;7.23;;;11.20;24.00;;;;;;5084781;28;20496;-67
2023/03/19 03:12:47;;;;;;;13.70;8.80;;;11.30;24.20;;;;;;5077829;28;20465;-67
2023/03/19 03:15:14;;;;;;;11.77;7.67;;;11.30;24.60;;;;;;5080094;28;20464;-67
2023/03/19 03:17:43;;;;;;;12.07;6.80;;;11.30;25.20;;;;;;5083061;28;20956;-67
2023/03/19 03:20:12;;;;;;;12.73;6.97;;;11.20;24.50;;;;;;5081378;28;20457;-67
2023/03/19 03:22:40;;;;;;;11.33;7.00;;;11.20;24.40;;;;;;5080629;28;20456;-67
2023/03/19 03:25:08;;;;;;;13.87;6.77;;;11.20;24.60;;;;;;5082284;28;20460;-67
2023/03/19 03:27:35;;;;;;;9.93;6.97;;;11.20;24.50;;;;;;5077270;28;20456;-67
2023/03/19 03:30:02;;;;;;;10.30;6.33;;;11.20;24.40;;;;;;5082746;28;21000;-67
2023/03/19 03:32:29;;;;;;;10.83;7.13;;;11.20;24.40;;;;;;5077049;28;20996;-67
2023/03/19 03:34:57;;;;;;;13.30;6.40;;;11.20;24.30;;;;;;5084703;28;20456;-67
2023/03/19 03:37:23;;;;;;;11.37;6.47;;;11.20;24.00;;;;;;5081275;28;20467;-67
2023/03/19 03:39:52;;;;;;;10.23;6.53;;;11.30;24.10;;;;;;5085536;28;20456;-67
2023/03/19 03:42:18;;;;;;;13.20;6.97;;;11.30;24.00;;;;;;5081559;28;20484;-67
2023/03/19 03:44:45;;;;;;;10.77;6.53;;;11.30;24.00;;;;;;5080934;28;20457;-67
2023/03/19 03:47:13;;;;;;;10.50;5.97;;;11.30;23.80;;;;;;5082427;28;20457;-68
2023/03/19 03:49:40;;;;;;;18.83;6.00;;;11.30;24.40;;;;;;5082683;28;20489;-67
2023/03/19 03:52:08;;;;;;;9.73;5.37;;;11.30;24.60;;;;;;5081172;28;20496;-68
2023/03/19 03:54:35;;;;;;;8.50;5.00;;;11.30;24.50;;;;;;5081691;28;20479;-67
2023/03/19 03:57:02;;;;;;;7.90;4.77;;;11.30;23.90;;;;;;5083520;28;20917;-67
2023/03/19 03:59:29;;;;;;;9.37;5.20;;;11.30;23.70;;;;;;5083333;28;20452;-67
2023/03/19 04:01:56;;;;;;;8.97;4.23;;;11.40;23.50;;;;;;5080564;28;20499;-66
2023/03/19 04:04:22;;;;;;;9.77;4.63;;;11.40;23.50;;;;;;5083239;28;20463;-66
2023/03/19 04:06:49;;;;;;;10.23;4.23;;;11.40;23.20;;;;;;5078547;28;20456;-66
2023/03/19 04:09:18;;;;;;;9.60;4.10;;;11.50;22.90;;;;;;5085764;28;20475;-66
2023/03/19 04:11:45;;;;;;;7.90;3.80;;;11.50;22.80;;;;;;5077139;28;20490;-67
2023/03/19 04:14:11;;;;;;;7.37;4.53;;;11.50;22.80;;;;;;5077663;28;20476;-67
2023/03/19 04:16:38;;;;;;;12.33;4.40;;;11.50;22.80;;;;;;5081501;28;20582;-67
2023/03/19 04:19:06;;;;;;;5.93;3.17;;;11.60;22.40;;;;;;5083572;28;20453;-67
2023/03/19 04:21:33;;;;;;;7.67;3.30;;;11.60;22.40;;;;;;5075203;28;20476;-67
2023/03/19 04:24:01;;;;;;;7.57;4.20;;;11.70;22.50;;;;;;5080920;28;20466;-67
2023/03/19 04:26:29;;;;;;;7.90;3.60;;;11.60;22.70;;;;;;5083405;28;20464;-67
2023/03/19 04:28:55;;;;;;;8.40;3.70;;;11.60;22.80;;;;;;5082532;28;20464;-67
2023/03/19 04:31:22;;;;;;;6.37;3.20;;;11.70;22.80;;;;;;5081634;28;20615;-67
2023/03/19 04:33:49;;;;;;;7.20;3.60;;;11.80;22.90;;;;;;5081768;28;20464;-67
2023/03/19 04:36:16;;;;;;;9.13;3.70;;;11.80;23.20;;;;;;5082911;28;20461;-67
2023/03/19 04:38:43;;;;;;;6.67;3.70;;;11.90;23.90;;;;;;5083440;28;20593;-67
2023/03/19 04:41:10;;;;;;;6.33;3.57;;;11.90;24.80;;;;;;5081559;28;20530;-67
2023/03/19 04:43:38;;;;;;;6.33;3.80;;;12.00;25.30;;;;;;5081599;28;20500;-68
2023/03/19 04:46:06;;;;;;;7.87;3.60;;;12.00;25.70;;;;;;5080076;28;20932;-68
2023/03/19 04:48:34;;;;;;;8.00;4.27;;;12.00;26.60;;;;;;5081593;28;21038;-68
2023/03/19 04:51:01;;;;;;;13.37;4.00;;;12.10;26.90;;;;;;5080529;28;20492;-68
2023/03/19 04:53:28;;;;;;;8.30;3.87;;;12.00;27.20;;;;;;5082186;28;21074;-68
2023/03/19 04:55:55;;;;;;;8.63;3.90;;;12.00;27.90;;;;;;5079100;28;20541;-67
2023/03/19 04:58:23;;;;;;;7.30;3.77;;;11.90;29.50;;;;;;5084988;28;20555;-68
2023/03/19 05:00:51;;;;;;;6.77;4.10;;;11.90;29.90;;;;;;5068234;28;20480;-67
2023/03/19 05:03:17;;;;;;;7.37;3.87;;;11.90;30.00;;;;;;5078560;28;20960;-68
2023/03/19 05:05:44;;;;;;;6.87;3.87;;;11.80;30.20;;;;;;5080825;28;20483;-68
2023/03/19 05:08:12;;;;;;;9.30;4.80;;;11.80;30.60;;;;;;5080162;28;21050;-68
2023/03/19 05:10:39;;;;;;;7.27;4.00;;;11.90;30.80;;;;;;5085066;28;20484;-67
2023/03/19 05:13:07;;;;;;;8.00;4.10;;;11.90;31.10;;;;;;5079300;28;20465;-68
2023/03/19 05:15:34;;;;;;;8.70;4.50;;;11.90;31.10;;;;;;5079617;28;20467;-67
2023/03/19 05:18:02;;;;;;;7.63;4.13;;;11.90;31.60;;;;;;5079609;28;20551;-67
2023/03/19 05:20:28;;;;;;;8.40;4.70;;;11.90;31.50;;;;;;5082666;28;20483;-67
2023/03/19 05:22:55;;;;;;;6.60;3.90;;;11.90;31.60;;;;;;5077465;28;20456;-67
2023/03/19 05:25:22;;;;;;;7.17;4.23;;;11.90;31.80;;;;;;5080945;28;20463;-68
2023/03/19 05:27:48;;;;;;;7.20;3.90;;;11.90;31.80;;;;;;5076118;28;20461;-67
2023/03/19 05:30:17;;;;;;;9.00;4.73;;;11.90;31.90;;;;;;5080635;28;20488;-67
2023/03/19 05:32:45;;;;;;;11.13;4.67;;;11.90;32.00;;;;;;5081329;28;20510;-67
2023/03/19 05:35:13;;;;;;;9.57;4.97;;;11.90;31.70;;;;;;5076831;28;20555;-67
2023/03/19 05:37:40;;;;;;;7.63;4.23;;;11.90;31.70;;;;;;5084458;28;21013;-67
2023/03/19 05:40:08;;;;;;;9.20;4.30;;;11.90;31.40;;;;;;5081587;28;20475;-67
2023/03/19 05:42:35;;;;;;;9.70;4.87;;;11.80;31.10;;;;;;5078886;28;20476;-67
2023/03/19 05:45:03;;;;;;;8.27;4.70;;;11.80;31.10;;;;;;5081986;28;20455;-67
2023/03/19 05:47:30;;;;;;;9.90;4.50;;;11.90;31.20;;;;;;5083627;28;20467;-67
2023/03/19 05:49:57;;;;;;;9.53;4.30;;;11.80;30.90;;;;;;5082810;28;20468;-67
2023/03/19 05:52:25;;;;;;;9.43;4.50;;;11.80;31.20;;;;;;5083208;28;20488;-67
2023/03/19 05:54:51;;;;;;;8.20;4.57;;;11.80;31.30;;;;;;5082773;28;20464;-67
2023/03/19 05:57:18;;;;;;;6.87;4.30;;;11.80;31.20;;;;;;5085511;28;20456;-67
2023/03/19 05:59:45;;;;;;;7.60;4.53;;;11.80;31.20;;;;;;5087438;28;20456;-67
2023/03/19 06:02:12;;;;;;;7.50;4.50;;;11.80;31.80;;;;;;5086798;28;20480;-67
2023/03/19 06:04:39;;;;;;;14.17;5.30;;;11.70;32.10;;;;;;5086148;28;20463;-67
2023/03/19 06:07:06;;;;;;;9.97;4.50;;;11.70;32.50;;;;;;5085539;28;20460;-67
2023/03/19 06:09:34;;;;;;;10.23;4.87;;;11.70;32.20;;;;;;5081400;28;20483;-67
2023/03/19 06:12:01;;;;;;;8.60;5.00;;;11.70;32.20;;;;;;5083507;28;20500;-67
2023/03/19 06:14:28;;;;;;;11.83;5.40;;;11.70;32.40;;;;;;5083722;28;20857;-68
2023/03/19 06:16:55;;;;;;;9.03;5.20;;;11.70;32.20;;;;;;5085596;28;20471;-67
2023/03/19 06:19:21;;;;;;;10.33;5.10;;;11.70;31.80;;;;;;5079804;28;20464;-67
2023/03/19 06:21:48;;;;;;;9.87;4.80;;;11.80;31.70;;;;;;5085346;28;20479;-67
2023/03/19 06:24:15;;;;;;;8.87;4.80;;;11.70;32.40;;;;;;5083290;28;20936;-67
2023/03/19 06:26:43;;;;;;;11.70;5.63;;;11.60;32.80;;;;;;5082485;28;20467;-67
2023/03/19 06:29:10;;;;;;;8.23;4.70;;;11.60;32.90;;;;;;5082140;28;20460;-67
2023/03/19 06:31:38;;;;;;;8.80;4.90;;;11.60;32.80;;;;;;5085967;28;20579;-67
2023/03/19 06:34:05;;;;;;;9.80;5.00;;;11.60;33.00;;;;;;5085430;28;20461;-67
2023/03/19 06:36:31;;;;;;;7.87;5.03;;;11.60;33.10;;;;;;5079873;28;20475;-67
2023/03/19 06:38:58;;;;;;;7.73;5.00;;;11.70;33.30;;;;;;5079160;28;20538;-67
2023/03/19 06:41:25;;;;;;;9.87;4.67;;;11.60;33.80;;;;;;5084463;28;20491;-67
2023/03/19 06:43:53;;;;;;;13.20;5.87;;;11.60;33.80;;;;;;5082876;28;20455;-67
2023/03/19 06:46:20;;;;;;;9.00;4.87;;;11.60;34.00;;;;;;5079644;28;20490;-67
2023/03/19 06:48:46;;;;;;;7.60;4.40;;;11.60;33.90;;;;;;5080455;28;20452;-68
2023/03/19 06:51:13;;;;;;;10.40;5.00;;;11.70;33.30;;;;;;5082066;28;20487;-69
2023/03/19 06:53:40;;;;;;;8.93;5.60;;;11.70;32.80;;;;;;5082494;28;20476;-68
2023/03/19 06:56:06;;;;;;;10.10;4.97;;;11.80;32.60;;;;;;5079481;28;21147;-68
2023/03/19 06:58:34;;;;;;;11.47;5.10;;;11.90;32.50;;;;;;5085801;28;20461;-68
2023/03/19 07:01:02;;;;;;;9.10;5.10;;;12.00;32.30;;;;;;5082082;28;20471;-68
2023/03/19 07:03:29;;;;;;;8.00;5.40;;;12.10;32.70;;;;;;5083678;28;20453;-68
2023/03/19 07:05:56;;;;;;;8.37;5.07;;;12.20;32.60;;;;;;5078637;28;20455;-68
2023/03/19 07:08:26;;;;;;;10.77;5.37;;;12.30;32.50;;;;;;5085486;28;20465;-68
2023/03/19 07:10:53;;;;;;;7.90;4.60;;;12.50;32.50;;;;;;5081428;28;20546;-68
2023/03/19 07:13:20;;;;;;;12.87;5.47;;;12.60;31.80;;;;;;5081822;28;21198;-67
2023/03/19 07:15:47;;;;;;;11.47;5.23;;;12.80;32.40;;;;;;5083803;28;20456;-66
2023/03/19 07:18:15;;;;;;;8.47;4.80;;;12.80;32.20;;;;;;5079506;28;20461;-67
2023/03/19 07:20:42;;;;;;;11.33;4.90;;;12.90;32.00;;;;;;5080536;28;20472;-67
2023/03/19 07:23:09;;;;;;;13.00;4.30;;;13.00;31.70;;;;;;5077336;28;20878;-71
2023/03/19 07:25:35;;;;;;;7.60;4.80;;;13.10;30.60;;;;;;5079289;28;20457;-72
2023/03/19 07:28:02;;;;;;;8.80;5.37;;;13.20;29.50;;;;;;5080111;28;20468;-71
2023/03/19 07:30:29;;;;;;;8.27;5.33;;;13.30;29.20;;;;;;5080723;28;20680;-71
2023/03/19 07:32:56;;;;;;;10.70;4.93;;;13.40;29.10;;;;;;5082522;28;20488;-73
2023/03/19 07:35:24;;;;;;;10.03;4.23;;;13.60;28.70;;;;;;5075324;28;20463;-72
2023/03/19 07:37:51;;;;;;;7.00;4.10;;;13.80;28.30;;;;;;5079641;28;20460;-71
2023/03/19 07:40:18;;;;;;;7.97;4.13;;;14.00;27.40;;;;;;5080324;28;20457;-72
2023/03/19 07:42:44;;;;;;;9.97;4.77;;;14.10;26.60;;;;;;5081019;28;20460;-72
2023/03/19 07:45:11;;;;;;;6.90;4.07;;;14.10;25.70;;;;;;5082852;28;20847;-72
2023/03/19 07:47:38;;;;;;;7.27;3.77;;;14.10;25.60;;;;;;5080515;28;20460;-72
2023/03/19 07:50:06;;;;;;;8.47;5.10;;;14.00;25.60;;;;;;5080053;28;20487;-72
2023/03/19 07:52:35;;;;;;;8.47;4.90;;;13.90;25.80;;;;;;5083315;28;20503;-71
2023/03/19 07:55:01;;;;;;;8.30;4.50;;;13.80;26.00;;;;;;5079608;28;20539;-72
2023/03/19 07:57:28;;;;;;;9.60;4.67;;;13.70;26.50;;;;;;5084841;28;20566;-73
2023/03/19 07:59:55;;;;;;;9.57;5.23;;;13.60;26.70;;;;;;5079771;28;20460;-72
2023/03/19 08:02:22;;;;;;;9.40;4.67;;;13.50;27.10;;;;;;5077635;28;20499;-72
2023/03/19 08:04:48;;;;;;;9.60;4.87;;;13.40;27.30;;;;;;5080444;28;20600;-72
2023/03/19 08:07:15;;;;;;;8.30;5.13;;;13.40;27.30;;;;;;5081696;28;20468;-71
2023/03/19 08:09:43;;;;;;;10.53;5.03;;;13.40;27.60;;;;;;5079479;28;20459;-73
2023/03/19 08:12:10;;;;;;;40.70;21.57;;;13.30;27.80;;;;;;5077670;28;20481;-72
2023/03/19 08:14:37;;;;;;;11.70;7.80;;;13.30;27.80;;;;;;5082835;28;20456;-72
2023/03/19 08:17:04;;;;;;;13.20;5.13;;;13.40;27.70;;;;;;5076367;28;20469;-73
2023/03/19 08:19:31;;;;;;;8.73;4.67;;;13.40;27.40;;;;;;5077798;28;20492;-70
2023/03/19 08:21:58;;;;;;;10.80;4.47;;;13.40;27.30;;;;;;5077409;28;20480;-70
2023/03/19 08:24:24;;;;;;;7.03;3.83;;;13.30;27.60;;;;;;5079200;28;20460;-70
2023/03/19 08:26:53;;;;;;;11.80;4.67;;;13.30;27.20;;;;;;5079293;28;20526;-71
2023/03/19 08:29:20;;;;;;;11.00;4.60;;;13.40;27.20;;;;;;5077499;28;20479;-70
2023/03/19 08:31:46;;;;;;;8.17;4.17;;;13.50;27.30;;;;;;5076158;28;20480;-71
2023/03/19 08:34:14;;;;;;;11.03;5.10;;;13.60;26.90;;;;;;5084255;28;20460;-70
2023/03/19 08:36:40;;;;;;;9.40;4.70;;;13.60;26.50;;;;;;5075779;28;20452;-70
2023/03/19 08:39:07;;;;;;;12.40;7.50;;;13.70;26.60;;;;;;5081631;28;21160;-70
2023/03/19 08:41:34;;;;;;;8.47;4.20;;;13.80;26.10;;;;;;5083133;28;20552;-70
2023/03/19 08:44:02;;;;;;;7.00;3.50;;;13.90;25.20;;;;;;5075540;28;20471;-70
2023/03/19 08:46:29;;;;;;;7.30;3.80;;;13.90;24.50;;;;;;5074143;28;20460;-71
2023/03/19 08:48:56;;;;;;;8.30;3.63;;;14.00;23.90;;;;;;5084411;28;20940;-70
2023/03/19 08:51:24;;;;;;;8.33;3.60;;;14.00;23.80;;;;;;5075485;28;20484;-70
2023/03/19 08:53:51;;;;;;;8.37;3.87;;;14.00;23.60;;;;;;5078470;28;20537;-70
2023/03/19 08:56:18;;;;;;;8.40;3.60;;;14.10;23.70;;;;;;5076129;28;20461;-70
2023/03/19 08:58:45;;;;;;;7.03;3.67;;;14.10;23.10;;;;;;5074992;28;20465;-70
2023/03/19 09:01:14;;;;;;;8.53;3.27;;;14.20;22.60;;;;;;5071772;28;20536;-69
2023/03/19 09:03:42;;;;;;;7.50;3.70;;;14.30;22.40;;;;;;5079899;28;20483;-70
2023/03/19 09:06:10;;;;;;;8.50;3.33;;;14.40;22.00;;;;;;5076301;28;20452;-70
2023/03/19 09:08:38;;;;;;;11.00;3.90;;;14.60;21.80;;;;;;5083045;28;20535;-70
2023/03/19 09:11:05;;;;;;;6.77;4.37;;;14.70;21.30;;;;;;5082637;28;20479;-70
2023/03/19 09:13:32;;;;;;;9.50;3.20;;;14.80;21.20;;;;;;5075840;28;20456;-70
2023/03/19 09:15:59;;;;;;;7.20;3.77;;;15.00;21.00;;;;;;5077982;28;20452;-69
2023/03/19 09:18:27;;;;;;;7.60;3.30;;;15.10;20.60;;;;;;5075078;28;20893;-69
2023/03/19 09:20:54;;;;;;;7.30;3.10;;;15.30;20.10;;;;;;5080331;28;20472;-67
2023/03/19 09:23:21;;;;;;;9.20;3.47;;;15.60;19.10;;;;;;5076350;28;20459;-68
2023/03/19 09:25:49;;;;;;;5.73;2.70;;;16.10;18.20;;;;;;5085460;28;20456;-68
2023/03/19 09:28:16;;;;;;;11.20;4.80;;;16.60;17.10;;;;;;5072433;28;20463;-68
2023/03/19 09:30:45;;;;;;;6.70;2.90;;;17.10;15.60;;;;;;5077453;28;20468;-69
2023/03/19 09:33:11;;;;;;;12.93;6.07;;;17.60;14.40;;;;;;5074156;28;20456;-70
2023/03/19 09:35:39;;;;;;;7.27;3.10;;;18.30;13.30;;;;;;5078821;28;20457;-69
2023/03/19 09:38:06;;;;;;;7.00;2.67;;;19.10;11.80;;;;;;5086125;28;21173;-68
2023/03/19 09:40:37;;;;;;;5.97;2.53;;;20.50;10.70;;;;;;5077718;28;20995;-69
2023/03/19 09:43:20;;;;;;;6.23;2.53;;;22.20;7.20;;;;;;5084327;28;20456;-69
2023/03/19 09:45:47;;;;;;;5.03;2.30;;;24.00;3.20;;;;;;5065703;28;20464;-66
2023/03/19 09:48:20;;;;;;;6.90;2.47;;;25.90;1.00;;;;;;5081379;28;20471;-69
2023/03/19 09:50:50;;;;;;;7.27;2.30;;;27.40;1.00;;;;;;5073247;28;20607;-67
2023/03/19 09:53:25;;;;;;;4.90;2.10;;;29.10;1.00;;;;;;5079220;28;20555;-67
2023/03/19 09:55:53;;;;;;;4.40;1.90;;;30.60;1.00;;;;;;5078452;28;20468;-67
2023/03/19 09:58:22;;;;;;;5.10;2.10;;;30.90;1.00;;;;;;5076207;28;20456;-68
2023/03/19 10:00:51;;;;;;;4.97;2.10;;;31.10;1.00;;;;;;5079260;28;20525;-69
2023/03/19 10:03:35;;;;;;;5.10;1.70;;;32.30;1.00;;;;;;5081123;28;20462;-70
2023/03/19 10:06:15;;;;;;;4.57;1.57;;;33.70;1.00;;;;;;5072057;28;20942;-70
2023/03/19 10:08:57;;;;;;;4.43;1.57;;;34.30;1.00;;;;;;5081116;28;20552;-70
2023/03/19 10:11:40;;;;;;;3.83;1.13;;;34.80;1.00;;;;;;5082796;28;20468;-70
2023/03/19 10:14:35;;;;;;;4.50;1.63;;;35.30;1.00;;;;;;5083037;28;20478;-70
2023/03/19 10:17:05;;;;;;;6.17;1.90;;;35.90;1.00;;;;;;5075732;28;20498;-76
2023/03/19 10:19:39;;;;;;;5.20;1.53;;;36.80;1.00;;;;;;5078250;28;20467;-67
2023/03/19 10:22:12;;;;;;;5.57;1.70;;;37.80;1.00;;;;;;5081883;28;20471;-68
2023/03/19 10:24:42;;;;;;;5.00;1.60;;;37.60;1.00;;;;;;5080265;28;20464;-68
2023/03/19 10:27:13;;;;;;;4.67;1.33;;;37.80;1.00;;;;;;5078867;28;20476;-68
2023/03/19 10:29:40;;;;;;;3.90;1.30;;;38.00;1.00;;;;;;5084682;28;20835;-67
2023/03/19 10:32:17;;;;;;;3.93;1.47;;;38.40;1.00;;;;;;5083606;28;20513;-67
2023/03/19 10:34:44;;;;;;;9.40;6.30;;;38.60;1.00;;;;;;5074086;28;20506;-67
2023/03/19 10:37:19;;;;;;;7.73;4.17;;;38.70;1.00;;;;;;5080072;28;20463;-66
2023/03/19 10:39:48;;;;;;;4.70;1.80;;;38.80;1.00;;;;;;5083254;28;20455;-69
2023/03/19 10:42:44;;;;;;;6.07;1.97;;;38.60;1.00;;;;;;5079101;28;20616;-67
2023/03/19 10:45:20;;;;;;;5.17;1.83;;;38.80;1.00;;;;;;5079576;28;20509;-67
2023/03/19 10:47:47;;;;;;;4.17;2.00;;;38.80;1.00;;;;;;5082341;28;20613;-67
2023/03/19 10:50:17;;;;;;;3.97;1.83;;;38.50;1.00;;;;;;5077250;28;20465;-67
2023/03/19 10:52:50;;;;;;;5.10;1.77;;;37.70;1.00;;;;;;5080325;28;20538;-67
2023/03/19 10:55:19;;;;;;;4.90;1.90;;;37.10;1.00;;;;;;5088063;28;20525;-66
2023/03/19 10:57:49;;;;;;;5.67;1.70;;;36.30;1.00;;;;;;5084473;28;20460;-67
2023/03/19 11:00:18;;;;;;;4.37;1.80;;;35.30;1.00;;;;;;5083858;28;20460;-66
2023/03/19 11:02:51;;;;;;;5.13;2.00;;;35.40;1.00;;;;;;5081857;28;20487;-66
2023/03/19 11:05:26;;;;;;;7.73;2.87;;;35.60;1.00;;;;;;5088359;28;20460;-66
2023/03/19 11:07:58;;;;;;;6.10;1.93;;;34.90;1.00;;;;;;5081420;28;20959;-66
2023/03/19 11:10:28;;;;;;;5.13;2.10;;;34.20;1.00;;;;;;5082448;28;20461;-66
2023/03/19 11:12:57;;;;;;;5.00;2.00;;;32.80;1.00;;;;;;5083182;28;20484;-65
2023/03/19 11:15:28;;;;;;;5.43;1.77;;;31.30;1.00;;;;;;5081072;28;20452;-66
2023/03/19 11:17:59;;;;;;;6.47;2.40;;;29.80;1.00;;;;;;5078576;28;20467;-66
2023/03/19 11:20:30;;;;;;;5.10;2.03;;;28.60;1.00;;;;;;5075118;28;20812;-65
2023/03/19 11:23:01;;;;;;;4.67;1.90;;;27.60;1.00;;;;;;5081570;28;20472;-65
2023/03/19 11:25:30;;;;;;;4.90;1.90;;;26.60;1.00;;;;;;5085643;28;20459;-65
2023/03/19 11:28:02;;;;;;;4.93;2.53;;;26.00;1.00;;;;;;5080395;28;20452;-65
2023/03/19 11:30:36;;;;;;;6.73;3.23;;;25.60;1.00;;;;;;5084314;28;20457;-66
2023/03/19 11:33:17;;;;;;;5.07;2.20;;;25.30;1.00;;;;;;5079617;28;20479;-65
2023/03/19 11:35:51;;;;;;;6.43;2.13;;;25.30;1.00;;;;;;5079169;28;20452;-65
2023/03/19 11:38:26;;;;;;;6.33;2.43;;;25.20;1.00;;;;;;5082243;28;20464;-65
2023/03/19 11:41:05;;;;;;;4.80;2.07;;;25.20;1.00;;;;;;5074645;28;20472;-65
2023/03/19 11:43:40;;;;;;;6.20;2.50;;;25.00;1.00;;;;;;5078653;28;20448;-66
2023/03/19 11:46:18;;;;;;;5.57;2.60;;;24.90;1.00;;;;;;5086928;28;21266;-65
2023/03/19 11:49:00;;;;;;;5.50;2.40;;;24.90;1.00;;;;;;5083961;28;20985;-65
2023/03/19 11:51:35;;;;;;;6.90;1.90;;;24.90;1.00;;;;;;5084272;28;20488;-66
2023/03/19 11:54:09;;;;;;;4.73;2.33;;;24.80;1.00;;;;;;5082546;28;20994;-66
2023/03/19 11:57:04;;;;;;;6.17;2.27;;;24.50;1.00;;;;;;5075803;28;20514;-66
2023/03/19 12:00:02;;;;;;;5.70;1.50;;;24.30;1.00;;;;;;5085232;28;20979;-64
2023/03/19 12:02:53;;;;;;;6.23;2.13;;;24.00;1.00;;;;;;5027264;28;20488;-64
2023/03/19 12:05:25;;;;;;;5.03;1.70;;;23.80;1.00;;;;;;5043205;28;20452;-65
2023/03/19 12:08:11;;;;;;;10.53;5.00;;;23.70;1.00;;;;;;5086112;28;20456;-65
2023/03/19 12:10:58;;;;;;;5.37;2.60;;;23.60;1.00;;;;;;5078940;28;20476;-65
2023/03/19 12:13:36;;;;;;;6.83;2.50;;;23.40;1.00;;;;;;5075523;28;20468;-64
2023/03/19 12:16:13;;;;;;;5.53;2.27;;;23.30;1.00;;;;;;5074907;28;20468;-65
2023/03/19 12:19:10;;;;;;;10.00;3.60;;;23.20;1.00;;;;;;5079529;28;20470;-64
2023/03/19 12:21:45;;;;;;;5.67;2.57;;;23.00;1.00;;;;;;5076931;28;21040;-65
2023/03/19 12:24:22;;;;;;;6.50;2.80;;;22.90;1.00;;;;;;5081861;28;21220;-65
2023/03/19 12:27:02;;;;;;;5.80;2.10;;;22.80;1.00;;;;;;5084522;28;20463;-65
2023/03/19 12:29:36;;;;;;;6.07;2.20;;;22.70;1.00;;;;;;5077320;28;20537;-65
2023/03/19 12:32:19;;;;;;;7.10;2.70;;;22.60;1.00;;;;;;5086753;28;20668;-65
2023/03/19 12:34:50;;;;;;;5.70;2.00;;;22.50;1.00;;;;;;5080297;28;20467;-65
2023/03/19 12:37:24;;;;;;;5.40;2.13;;;22.40;1.00;;;;;;5081433;28;20910;-65
2023/03/19 12:40:05;;;;;;;6.10;2.37;;;22.30;1.00;;;;;;5083057;28;20453;-65
2023/03/19 12:42:38;;;;;;;5.67;1.97;;;22.30;1.00;;;;;;5079833;28;21066;-65
2023/03/19 12:45:19;;;;;;;6.83;2.03;;;22.20;1.00;;;;;;5078868;28;20564;-65
2023/03/19 12:47:47;;;;;;;5.00;1.97;;;22.10;1.00;;;;;;5086077;28;20479;-65
2023/03/19 12:50:17;;;;;;;5.27;1.90;;;22.20;1.00;;;;;;5083505;28;20461;-65
2023/03/19 12:52:48;;;;;;;5.77;2.10;;;22.10;1.00;;;;;;5081152;28;20512;-65
2023/03/19 12:55:20;;;;;;;6.63;2.33;;;22.10;1.00;;;;;;5085059;28;20456;-65